Time;durP1;ratioP1;P1;durP2;ratioP2;P2;SDS_P1;SDS_P2;PMS_P1;PMS_P2;Temp;Humidity;BMP_temperature;BMP_pressure;BME280_temperature;BME280_humidity;BME280_pressure;Samples;Min_cycle;Max_cycle;Signal;HPM_P1;HPM_P2
2024/02/22 00:01:36;;;;;;;4.20;1.50;;;7.70;99.90;;;;;;5039228;28;20025;-64
2024/02/22 00:04:02;;;;;;;4.70;1.50;;;7.70;99.90;;;;;;5045698;28;20037;-65
2024/02/22 00:06:27;;;;;;;4.80;1.73;;;7.70;99.90;;;;;;5038637;28;20029;-65
2024/02/22 00:08:53;;;;;;;4.57;1.80;;;7.70;99.90;;;;;;5039908;28;20021;-65
2024/02/22 00:11:19;;;;;;;5.07;1.80;;;7.70;99.90;;;;;;5047013;28;20483;-65
2024/02/22 00:13:45;;;;;;;5.57;1.33;;;7.70;99.90;;;;;;5039050;28;20060;-64
2024/02/22 00:16:14;;;;;;;4.72;1.58;;;7.70;99.90;;;;;;5041243;28;20068;-65
2024/02/22 00:18:42;;;;;;;3.83;1.38;;;7.80;99.90;;;;;;5038877;28;20488;-64
2024/02/22 00:21:08;;;;;;;3.90;1.40;;;7.70;99.90;;;;;;5040006;28;20021;-65
2024/02/22 00:23:34;;;;;;;3.47;1.17;;;7.80;99.90;;;;;;5035806;28;20022;-65
2024/02/22 00:26:00;;;;;;;3.42;1.23;;;7.80;99.90;;;;;;5036826;28;20091;-65
2024/02/22 00:28:26;;;;;;;3.83;1.38;;;7.80;99.90;;;;;;5036324;28;20024;-64
2024/02/22 00:30:51;;;;;;;4.25;1.50;;;7.70;99.90;;;;;;5041408;28;20101;-64
2024/02/22 00:33:17;;;;;;;3.03;1.10;;;7.80;99.90;;;;;;5042161;28;20037;-63
2024/02/22 00:35:42;;;;;;;4.15;1.42;;;7.80;99.90;;;;;;5037510;28;20473;-63
2024/02/22 00:38:08;;;;;;;4.50;1.60;;;7.80;99.90;;;;;;5041438;28;20025;-62
2024/02/22 00:40:34;;;;;;;2.55;1.17;;;7.80;99.90;;;;;;5038442;28;20017;-62
2024/02/22 00:42:59;;;;;;;2.88;1.10;;;7.80;99.90;;;;;;5041561;28;20033;-63
2024/02/22 00:45:25;;;;;;;4.93;1.40;;;7.80;99.90;;;;;;5038552;28;20037;-62
2024/02/22 00:47:51;;;;;;;3.95;1.20;;;7.80;99.90;;;;;;5045038;28;20083;-63
2024/02/22 00:50:16;;;;;;;2.65;1.02;;;7.80;99.90;;;;;;5040597;28;20036;-63
2024/02/22 00:52:42;;;;;;;3.53;1.10;;;7.80;99.90;;;;;;5037614;28;20025;-63
2024/02/22 00:55:08;;;;;;;3.25;1.05;;;7.80;99.90;;;;;;5040139;28;20568;-63
2024/02/22 00:57:34;;;;;;;5.85;1.92;;;7.80;99.90;;;;;;5041474;28;20044;-63
2024/02/22 00:59:59;;;;;;;4.00;1.05;;;7.80;99.90;;;;;;5037628;28;20503;-63
2024/02/22 01:02:27;;;;;;;2.33;0.90;;;7.80;99.90;;;;;;5041700;28;20028;-63
2024/02/22 01:04:53;;;;;;;2.15;0.90;;;7.90;99.90;;;;;;5038419;28;20033;-63
2024/02/22 01:07:21;;;;;;;1.70;0.90;;;7.90;99.90;;;;;;5040398;28;20021;-63
2024/02/22 01:09:47;;;;;;;1.58;0.90;;;8.00;99.90;;;;;;5042209;28;20060;-63
2024/02/22 01:12:13;;;;;;;3.10;1.25;;;8.00;99.90;;;;;;5042488;28;20434;-64
2024/02/22 01:14:38;;;;;;;2.95;1.00;;;7.90;99.90;;;;;;5039338;28;20052;-63
2024/02/22 01:17:04;;;;;;;2.30;1.00;;;8.00;99.90;;;;;;5043076;28;20037;-62
2024/02/22 01:19:30;;;;;;;1.50;0.95;;;8.00;99.90;;;;;;5045454;28;20086;-63
2024/02/22 01:21:56;;;;;;;3.65;1.10;;;8.00;99.90;;;;;;5041385;28;20427;-63
2024/02/22 01:24:23;;;;;;;3.10;1.10;;;8.00;99.90;;;;;;5044772;28;20425;-63
2024/02/22 01:26:48;;;;;;;1.80;0.90;;;7.90;99.90;;;;;;5045481;28;20417;-64
2024/02/22 01:29:14;;;;;;;4.25;1.20;;;8.00;99.90;;;;;;5044522;28;20056;-63
2024/02/22 01:31:39;;;;;;;2.83;1.23;;;8.00;99.90;;;;;;5044521;28;20048;-63
2024/02/22 01:34:05;;;;;;;2.33;1.00;;;8.00;99.90;;;;;;5044825;28;20445;-62
2024/02/22 01:36:31;;;;;;;4.28;1.25;;;8.00;99.90;;;;;;5044906;28;20082;-62
2024/02/22 01:38:57;;;;;;;3.03;1.10;;;8.10;99.90;;;;;;5041288;28;20104;-65
2024/02/22 01:41:22;;;;;;;1.52;0.88;;;8.00;99.90;;;;;;5047815;28;20086;-63
2024/02/22 01:43:48;;;;;;;3.85;1.40;;;8.10;99.90;;;;;;5043130;28;20025;-62
2024/02/22 01:46:14;;;;;;;4.18;1.40;;;8.10;99.90;;;;;;5042585;28;20116;-62
2024/02/22 01:48:40;;;;;;;2.78;1.10;;;8.10;99.90;;;;;;5044715;28;20025;-63
2024/02/22 01:51:07;;;;;;;3.80;1.30;;;8.10;99.90;;;;;;5043727;28;20112;-63
2024/02/22 01:53:34;;;;;;;5.40;1.10;;;8.10;99.90;;;;;;5044209;28;20056;-62
2024/02/22 01:56:01;;;;;;;3.47;1.35;;;8.10;99.90;;;;;;5035502;28;20063;-63
2024/02/22 01:58:36;;;;;;;3.13;1.30;;;8.20;99.90;;;;;;5047938;28;20017;-62
2024/02/22 02:01:04;;;;;;;3.45;1.10;;;8.10;99.90;;;;;;5039593;28;20026;-63
2024/02/22 02:03:30;;;;;;;3.63;1.30;;;8.10;99.90;;;;;;5042273;28;20155;-63
2024/02/22 02:05:56;;;;;;;4.07;1.33;;;8.10;99.90;;;;;;5042584;28;20118;-63
2024/02/22 02:08:23;;;;;;;4.43;1.50;;;8.10;99.90;;;;;;5040260;28;20089;-63
2024/02/22 02:10:49;;;;;;;4.82;1.35;;;8.20;99.90;;;;;;5042282;28;20392;-63
2024/02/22 02:13:15;;;;;;;3.15;1.30;;;8.20;99.90;;;;;;5041004;28;20054;-63
2024/02/22 02:15:41;;;;;;;4.82;1.35;;;8.20;99.90;;;;;;5043078;28;20040;-63
2024/02/22 02:18:07;;;;;;;4.05;1.13;;;8.10;99.90;;;;;;5040218;28;20106;-63
2024/02/22 02:20:40;;;;;;;3.22;1.30;;;8.10;99.90;;;;;;5040343;28;20069;-62
2024/02/22 02:23:27;;;;;;;3.13;0.93;;;8.10;99.90;;;;;;5041651;28;20044;-64
2024/02/22 02:25:53;;;;;;;3.35;1.20;;;8.20;99.90;;;;;;5043690;28;20017;-63
2024/02/22 02:28:18;;;;;;;3.50;1.20;;;8.20;99.90;;;;;;5040349;28;20055;-64
2024/02/22 02:30:44;;;;;;;3.22;1.23;;;8.20;99.90;;;;;;5041261;28;20033;-64
2024/02/22 02:33:09;;;;;;;3.22;1.25;;;8.20;99.90;;;;;;5042912;28;20033;-64
2024/02/22 02:35:37;;;;;;;3.35;1.30;;;8.20;99.90;;;;;;5039228;28;20496;-63
2024/02/22 02:38:10;;;;;;;4.03;1.33;;;8.20;99.90;;;;;;5039267;28;20021;-64
2024/02/22 02:40:36;;;;;;;4.65;1.33;;;8.30;99.90;;;;;;5041471;28;20021;-63
2024/02/22 02:43:01;;;;;;;4.40;1.40;;;8.30;99.90;;;;;;5041644;28;20500;-63
2024/02/22 02:45:27;;;;;;;3.38;1.20;;;8.30;99.90;;;;;;5039817;28;20612;-64
2024/02/22 02:47:53;;;;;;;3.65;1.40;;;8.30;99.90;;;;;;5039751;28;20100;-63
2024/02/22 02:50:18;;;;;;;3.88;1.48;;;8.30;99.90;;;;;;5047434;28;20127;-63
2024/02/22 02:52:44;;;;;;;4.47;1.58;;;8.30;99.90;;;;;;5047380;28;20055;-64
2024/02/22 02:55:13;;;;;;;4.15;1.30;;;8.30;99.90;;;;;;5050084;28;20029;-64
2024/02/22 02:57:40;;;;;;;4.60;1.60;;;8.30;99.90;;;;;;5048086;28;20025;-63
2024/02/22 03:00:11;;;;;;;5.15;1.83;;;8.40;99.90;;;;;;5048730;28;20516;-64
2024/02/22 03:02:37;;;;;;;5.57;1.75;;;8.30;99.90;;;;;;5049517;28;20099;-63
2024/02/22 03:05:03;;;;;;;5.10;1.75;;;8.40;99.90;;;;;;5047569;28;20101;-64
2024/02/22 03:07:29;;;;;;;4.00;1.58;;;8.30;99.90;;;;;;5045538;28;20029;-64
2024/02/22 03:09:54;;;;;;;5.45;1.80;;;8.30;99.90;;;;;;5046954;28;20028;-64
2024/02/22 03:12:20;;;;;;;5.70;2.10;;;8.30;99.90;;;;;;5049272;28;20084;-63
2024/02/22 03:14:45;;;;;;;5.25;1.67;;;8.40;99.90;;;;;;5046503;28;20121;-63
2024/02/22 03:17:11;;;;;;;5.00;1.90;;;8.40;99.90;;;;;;5047232;28;20021;-64
2024/02/22 03:19:37;;;;;;;4.43;1.70;;;8.40;99.90;;;;;;5064239;28;20021;-64
2024/02/22 03:22:02;;;;;;;5.15;1.95;;;8.40;99.90;;;;;;5045662;28;20472;-64
2024/02/22 03:24:28;;;;;;;5.20;1.90;;;8.40;99.90;;;;;;5041659;28;20021;-64
2024/02/22 03:26:53;;;;;;;4.65;1.80;;;8.40;99.90;;;;;;5043068;28;20368;-65
2024/02/22 03:29:21;;;;;;;5.25;1.85;;;8.40;99.90;;;;;;5046512;28;20104;-64
2024/02/22 03:31:46;;;;;;;4.88;1.80;;;8.40;99.90;;;;;;5043324;28;20029;-63
2024/02/22 03:34:12;;;;;;;3.63;1.38;;;8.40;99.90;;;;;;5038605;28;20025;-64
2024/02/22 03:36:41;;;;;;;3.95;1.40;;;8.40;99.90;;;;;;5041472;28;20032;-65
2024/02/22 03:39:11;;;;;;;4.38;1.70;;;8.50;99.90;;;;;;5040390;28;20021;-64
2024/02/22 03:41:37;;;;;;;3.63;1.50;;;8.40;99.90;;;;;;5039538;28;20147;-65
2024/02/22 03:44:03;;;;;;;3.95;1.40;;;8.40;99.90;;;;;;5039750;28;20228;-64
2024/02/22 03:46:28;;;;;;;4.25;1.60;;;8.50;99.90;;;;;;5041972;28;20154;-65
2024/02/22 03:48:54;;;;;;;4.10;1.60;;;8.50;99.90;;;;;;5038891;28;20053;-64
2024/02/22 03:51:22;;;;;;;4.13;1.55;;;8.50;99.90;;;;;;5043076;28;20029;-64
2024/02/22 03:53:48;;;;;;;4.95;1.75;;;8.50;99.90;;;;;;5037571;28;20465;-63
2024/02/22 03:56:13;;;;;;;4.55;1.60;;;8.40;99.90;;;;;;5041667;28;20035;-64
2024/02/22 03:58:39;;;;;;;4.38;1.65;;;8.60;99.90;;;;;;5041261;28;20104;-64
2024/02/22 04:01:05;;;;;;;4.82;1.80;;;8.50;99.90;;;;;;5040352;28;20100;-64
2024/02/22 04:03:31;;;;;;;4.45;1.67;;;8.50;99.90;;;;;;5041148;28;20017;-64
2024/02/22 04:05:57;;;;;;;4.80;1.77;;;8.50;99.90;;;;;;5038122;28;20108;-64
2024/02/22 04:08:23;;;;;;;4.65;1.77;;;8.50;99.90;;;;;;5039143;28;20030;-64
2024/02/22 04:10:48;;;;;;;4.82;1.80;;;8.50;99.90;;;;;;5041475;28;20108;-64
2024/02/22 04:13:14;;;;;;;4.47;1.67;;;8.60;99.90;;;;;;5041499;28;20049;-64
2024/02/22 04:15:40;;;;;;;2.53;1.13;;;8.50;99.90;;;;;;5045104;28;20033;-64
2024/02/22 04:18:06;;;;;;;4.43;1.50;;;8.50;99.90;;;;;;5038384;28;20678;-64
2024/02/22 04:20:32;;;;;;;3.80;1.33;;;8.50;99.90;;;;;;5040581;28;20605;-65
2024/02/22 04:22:58;;;;;;;6.53;1.80;;;8.50;99.90;;;;;;5038940;28;20023;-64
2024/02/22 04:25:23;;;;;;;4.18;1.55;;;8.60;99.90;;;;;;5036203;28;20048;-64
2024/02/22 04:27:49;;;;;;;4.78;1.80;;;8.60;99.90;;;;;;5042436;28;20718;-64
2024/02/22 04:30:15;;;;;;;4.57;1.70;;;8.60;99.90;;;;;;5034363;28;20027;-64
2024/02/22 04:32:40;;;;;;;4.45;1.70;;;8.60;99.90;;;;;;5041684;28;20021;-64
2024/02/22 04:35:07;;;;;;;4.03;1.40;;;8.60;99.90;;;;;;5036025;28;20104;-64
2024/02/22 04:37:32;;;;;;;4.00;1.50;;;8.50;99.90;;;;;;5038474;28;20057;-64
2024/02/22 04:39:58;;;;;;;5.00;1.60;;;8.60;99.90;;;;;;5039448;28;20654;-63
2024/02/22 04:42:24;;;;;;;4.82;1.80;;;8.60;99.90;;;;;;5043265;28;20078;-63
2024/02/22 04:44:50;;;;;;;5.38;1.80;;;8.60;99.90;;;;;;5042600;28;20488;-63
2024/02/22 04:47:15;;;;;;;5.18;1.92;;;8.60;99.90;;;;;;5042533;28;20473;-63
2024/02/22 04:49:41;;;;;;;4.45;1.55;;;8.60;99.90;;;;;;5045984;28;20033;-63
2024/02/22 04:52:07;;;;;;;4.78;1.80;;;8.60;99.90;;;;;;5036985;28;20028;-63
2024/02/22 04:54:33;;;;;;;4.82;1.83;;;8.60;99.90;;;;;;5046423;28;20029;-63
2024/02/22 04:56:59;;;;;;;4.55;1.60;;;8.60;99.90;;;;;;5043627;28;20029;-63
2024/02/22 04:59:24;;;;;;;4.95;1.73;;;8.60;99.90;;;;;;5043641;28;20028;-64
2024/02/22 05:01:50;;;;;;;4.65;1.63;;;8.60;99.90;;;;;;5040810;28;20109;-65
2024/02/22 05:04:16;;;;;;;3.80;1.52;;;8.60;99.90;;;;;;5036761;28;20029;-64
2024/02/22 05:06:43;;;;;;;4.85;1.70;;;8.60;99.90;;;;;;5041751;28;20034;-64
2024/02/22 05:09:12;;;;;;;4.40;1.52;;;8.60;99.90;;;;;;5044843;28;20049;-64
2024/02/22 05:11:45;;;;;;;3.87;1.47;;;8.60;99.90;;;;;;5042477;28;20101;-63
2024/02/22 05:14:10;;;;;;;4.20;1.42;;;8.70;99.90;;;;;;5041643;28;20040;-63
2024/02/22 05:16:36;;;;;;;4.97;1.83;;;8.60;99.90;;;;;;5045573;28;20029;-64
2024/02/22 05:19:02;;;;;;;3.85;1.50;;;8.70;99.90;;;;;;5041353;28;20468;-63
2024/02/22 05:21:28;;;;;;;4.82;1.60;;;8.70;99.90;;;;;;5043475;28;20109;-64
2024/02/22 05:23:53;;;;;;;5.00;1.63;;;8.70;99.90;;;;;;5038503;28;20025;-64
2024/02/22 05:26:19;;;;;;;4.13;1.50;;;8.60;99.90;;;;;;5045657;28;20021;-64
2024/02/22 05:28:45;;;;;;;4.10;1.35;;;8.80;99.90;;;;;;5038778;28;20407;-63
2024/02/22 05:31:29;;;;;;;4.15;1.40;;;8.70;99.90;;;;;;5044926;28;20128;-63
2024/02/22 05:33:55;;;;;;;4.32;1.50;;;8.70;99.90;;;;;;5042175;28;20030;-64
2024/02/22 05:36:21;;;;;;;5.03;1.80;;;8.70;99.90;;;;;;5050465;28;20025;-63
2024/02/22 05:38:48;;;;;;;5.03;1.90;;;8.70;99.90;;;;;;5045045;28;20067;-63
2024/02/22 05:41:14;;;;;;;6.93;1.98;;;8.70;99.90;;;;;;5048517;28;20052;-63
2024/02/22 05:43:40;;;;;;;5.40;2.00;;;8.70;99.90;;;;;;5040064;28;20029;-64
2024/02/22 05:46:06;;;;;;;5.78;2.05;;;8.70;99.90;;;;;;5045737;28;20043;-64
2024/02/22 05:48:32;;;;;;;6.15;2.05;;;8.70;99.90;;;;;;5040614;28;20037;-64
2024/02/22 05:50:57;;;;;;;5.43;2.17;;;8.70;99.90;;;;;;5044241;28;20025;-64
2024/02/22 05:53:23;;;;;;;6.00;2.10;;;8.70;99.90;;;;;;5039056;28;20033;-64
2024/02/22 05:55:49;;;;;;;6.50;2.42;;;8.70;99.90;;;;;;5046773;28;20678;-65
2024/02/22 05:58:16;;;;;;;4.97;1.67;;;8.70;99.90;;;;;;5047129;28;20025;-64
2024/02/22 06:00:42;;;;;;;8.32;2.90;;;8.80;99.90;;;;;;5041922;28;20043;-64
2024/02/22 06:03:09;;;;;;;6.63;2.67;;;8.70;99.90;;;;;;5041115;28;20021;-64
2024/02/22 06:05:35;;;;;;;6.47;2.75;;;8.70;99.90;;;;;;5042049;28;20033;-64
2024/02/22 06:08:01;;;;;;;6.88;2.70;;;8.70;99.90;;;;;;5034443;28;20029;-64
2024/02/22 06:10:28;;;;;;;7.55;3.20;;;8.70;99.90;;;;;;5040562;28;20037;-64
2024/02/22 06:12:53;;;;;;;7.47;2.90;;;8.70;99.90;;;;;;5042305;28;20099;-64
2024/02/22 06:15:19;;;;;;;7.97;3.25;;;8.70;99.90;;;;;;5043085;28;20036;-64
2024/02/22 06:17:45;;;;;;;8.52;3.75;;;8.70;99.90;;;;;;5041044;28;20372;-65
2024/02/22 06:20:11;;;;;;;8.43;3.85;;;8.70;99.90;;;;;;5042595;28;20044;-64
2024/02/22 06:22:36;;;;;;;9.00;3.55;;;8.70;99.90;;;;;;5036557;28;20033;-65
2024/02/22 06:25:02;;;;;;;8.65;3.67;;;8.80;99.90;;;;;;5039790;28;20032;-64
2024/02/22 06:27:29;;;;;;;9.77;4.43;;;8.80;99.90;;;;;;5041076;28;20021;-64
2024/02/22 06:29:55;;;;;;;10.02;3.97;;;8.80;99.90;;;;;;5042602;28;20025;-64
2024/02/22 06:32:23;;;;;;;10.15;4.60;;;8.80;99.90;;;;;;5043337;28;20195;-64
2024/02/22 06:34:50;;;;;;;10.10;4.70;;;8.80;99.90;;;;;;5039729;28;20029;-64
2024/02/22 06:37:17;;;;;;;11.85;5.47;;;8.90;99.90;;;;;;5047442;28;20021;-64
2024/02/22 06:39:43;;;;;;;10.45;5.22;;;8.80;99.90;;;;;;5041360;28;20493;-64
2024/02/22 06:42:08;;;;;;;11.35;5.53;;;8.90;99.90;;;;;;5044522;28;20052;-64
2024/02/22 06:44:34;;;;;;;11.15;5.13;;;8.90;99.90;;;;;;5042520;28;20029;-64
2024/02/22 06:47:00;;;;;;;12.60;6.22;;;8.80;99.90;;;;;;5038402;28;20509;-65
2024/02/22 06:49:27;;;;;;;12.30;6.00;;;8.90;99.90;;;;;;5041473;28;20030;-66
2024/02/22 06:51:53;;;;;;;12.30;5.57;;;8.90;99.90;;;;;;5040185;28;20449;-64
2024/02/22 06:54:19;;;;;;;12.07;6.03;;;8.80;99.90;;;;;;5056682;28;20032;-63
2024/02/22 06:56:45;;;;;;;11.90;5.97;;;8.90;99.90;;;;;;5051041;28;20035;-64
2024/02/22 06:59:11;;;;;;;12.68;6.63;;;8.90;99.90;;;;;;5046149;28;20033;-64
2024/02/22 07:01:37;;;;;;;12.77;6.28;;;8.80;99.90;;;;;;5039635;28;20025;-64
2024/02/22 07:04:03;;;;;;;11.82;5.85;;;8.80;99.90;;;;;;5040269;28;20468;-63
2024/02/22 07:06:29;;;;;;;12.68;6.15;;;8.90;99.90;;;;;;5043430;28;20028;-63
2024/02/22 07:08:55;;;;;;;14.35;6.25;;;8.80;99.90;;;;;;5038534;28;20021;-62
2024/02/22 07:11:20;;;;;;;14.23;6.97;;;8.90;99.90;;;;;;5038428;28;20025;-63
2024/02/22 07:13:46;;;;;;;13.00;6.07;;;8.90;99.90;;;;;;5038129;28;20049;-64
2024/02/22 07:16:12;;;;;;;14.75;6.20;;;8.90;99.90;;;;;;5038726;28;20033;-64
2024/02/22 07:18:38;;;;;;;12.70;6.05;;;8.90;99.90;;;;;;5042565;28;20017;-64
2024/02/22 07:21:05;;;;;;;10.90;4.97;;;8.90;99.90;;;;;;5040749;28;20032;-64
2024/02/22 07:23:30;;;;;;;11.45;5.50;;;8.90;99.90;;;;;;5042296;28;20494;-64
2024/02/22 07:25:56;;;;;;;10.30;5.00;;;8.90;99.90;;;;;;5040227;28;20029;-64
2024/02/22 07:28:22;;;;;;;10.13;4.80;;;8.90;99.90;;;;;;5044647;28;20036;-64
2024/02/22 07:30:49;;;;;;;9.30;3.90;;;8.80;99.90;;;;;;5040864;28;20029;-64
2024/02/22 07:33:16;;;;;;;9.48;4.03;;;8.80;99.90;;;;;;5043680;28;20039;-64
2024/02/22 07:35:42;;;;;;;8.45;3.45;;;8.70;99.90;;;;;;5043463;28;20034;-64
2024/02/22 07:38:08;;;;;;;8.80;3.92;;;8.90;99.90;;;;;;5039505;28;20120;-64
2024/02/22 07:40:33;;;;;;;8.30;3.50;;;8.90;99.90;;;;;;5043860;28;20100;-64
2024/02/22 07:42:59;;;;;;;6.35;2.75;;;9.00;99.90;;;;;;5036268;28;20428;-63
2024/02/22 07:45:28;;;;;;;6.57;2.85;;;9.00;99.90;;;;;;5043478;28;20100;-63
2024/02/22 07:47:57;;;;;;;5.82;2.35;;;9.00;99.90;;;;;;5042837;28;20044;-64
2024/02/22 07:50:23;;;;;;;6.28;2.28;;;9.10;99.90;;;;;;5043277;28;20044;-64
2024/02/22 07:52:49;;;;;;;5.95;2.20;;;9.10;99.90;;;;;;5041681;28;20086;-64
2024/02/22 07:55:14;;;;;;;5.88;2.15;;;9.10;99.90;;;;;;5043134;28;20115;-65
2024/02/22 07:57:40;;;;;;;5.05;1.80;;;9.30;99.90;;;;;;5046214;28;20040;-64
2024/02/22 08:00:09;;;;;;;5.85;2.10;;;9.40;99.90;;;;;;5041935;28;20028;-65
2024/02/22 08:02:35;;;;;;;4.38;1.50;;;9.40;99.90;;;;;;5042000;28;20176;-64
2024/02/22 08:05:00;;;;;;;4.65;1.60;;;9.50;99.90;;;;;;5041141;28;20112;-65
2024/02/22 08:07:26;;;;;;;3.78;1.40;;;9.60;99.90;;;;;;5043874;28;20078;-65
2024/02/22 08:09:51;;;;;;;3.80;1.50;;;9.60;99.90;;;;;;5044724;28;20544;-64
2024/02/22 08:12:17;;;;;;;3.53;1.40;;;9.70;99.90;;;;;;5036919;28;20086;-63
2024/02/22 08:14:43;;;;;;;2.53;1.15;;;9.70;99.90;;;;;;5041319;28;20037;-64
2024/02/22 08:17:08;;;;;;;4.13;1.40;;;9.80;99.90;;;;;;5042736;28;20024;-64
2024/02/22 08:19:34;;;;;;;4.05;1.50;;;9.80;99.90;;;;;;5042884;28;20021;-65
2024/02/22 08:22:00;;;;;;;2.47;1.15;;;9.80;99.90;;;;;;5037610;28;20029;-65
2024/02/22 08:24:26;;;;;;;3.28;1.33;;;9.90;99.90;;;;;;5038274;28;20650;-63
2024/02/22 08:26:52;;;;;;;3.22;1.30;;;9.90;99.90;;;;;;5041324;28;20044;-64
2024/02/22 08:29:17;;;;;;;3.67;1.40;;;10.00;99.90;;;;;;5040223;28;20093;-64
2024/02/22 08:31:43;;;;;;;3.63;1.30;;;10.00;99.90;;;;;;5044372;28;20029;-64
2024/02/22 08:34:09;;;;;;;4.22;1.15;;;10.00;99.90;;;;;;5038107;28;20021;-65
2024/02/22 08:36:34;;;;;;;3.45;1.20;;;10.10;99.90;;;;;;5041753;28;20034;-65
2024/02/22 08:39:00;;;;;;;2.65;1.08;;;10.10;99.90;;;;;;5041168;28;20095;-65
2024/02/22 08:41:26;;;;;;;2.83;1.17;;;10.20;99.90;;;;;;5039395;28;20037;-64
2024/02/22 08:43:53;;;;;;;2.58;1.10;;;10.20;99.90;;;;;;5038294;28;20166;-64
2024/02/22 08:46:20;;;;;;;2.05;1.00;;;10.20;99.90;;;;;;5041013;28;20082;-64
2024/02/22 08:48:46;;;;;;;2.28;0.93;;;10.20;99.90;;;;;;5045389;28;20033;-64
2024/02/22 08:51:12;;;;;;;3.60;1.13;;;10.30;99.90;;;;;;5043096;28;20059;-65
2024/02/22 08:53:38;;;;;;;2.20;1.00;;;10.20;99.90;;;;;;5037750;28;20041;-65
2024/02/22 08:56:08;;;;;;;2.33;0.90;;;10.30;99.90;;;;;;5037450;28;20030;-65
2024/02/22 08:58:34;;;;;;;;;;;10.30;99.90;;;;;;5042397;28;20021;-66
2024/02/22 09:01:00;;;;;;;2.88;1.10;;;10.40;99.90;;;;;;5039034;28;19916;-65
2024/02/22 09:03:26;;;;;;;2.35;0.90;;;10.50;99.90;;;;;;5041359;28;20100;-65
2024/02/22 09:05:52;;;;;;;1.83;0.85;;;10.60;99.90;;;;;;5040639;28;20125;-66
2024/02/22 09:08:18;;;;;;;2.30;0.90;;;10.60;99.90;;;;;;5041623;28;20032;-65
2024/02/22 09:10:43;;;;;;;1.45;0.88;;;10.60;99.90;;;;;;5045783;28;20157;-65
2024/02/22 09:13:09;;;;;;;2.38;0.98;;;10.70;99.90;;;;;;5039586;28;20847;-65
2024/02/22 09:15:35;;;;;;;3.03;0.95;;;10.70;99.90;;;;;;5040009;28;20341;-65
2024/02/22 09:18:00;;;;;;;1.48;0.80;;;10.70;99.90;;;;;;5037609;28;20434;-65
2024/02/22 09:20:27;;;;;;;1.80;0.80;;;10.80;99.90;;;;;;5040571;28;20025;-65
2024/02/22 09:22:53;;;;;;;1.90;0.80;;;11.00;99.90;;;;;;5039312;28;20123;-64
2024/02/22 09:25:19;;;;;;;2.22;0.88;;;11.00;99.90;;;;;;5039506;28;20028;-64
2024/02/22 09:27:45;;;;;;;1.70;0.80;;;11.20;99.90;;;;;;5038706;28;20033;-64
2024/02/22 09:30:10;;;;;;;1.48;0.80;;;11.20;99.90;;;;;;5046980;28;20033;-64
2024/02/22 09:32:36;;;;;;;2.17;0.80;;;11.30;99.90;;;;;;5048212;28;20029;-64
2024/02/22 09:35:02;;;;;;;4.22;0.85;;;11.40;99.90;;;;;;5042499;28;20116;-64
2024/02/22 09:37:29;;;;;;;1.63;0.80;;;11.40;99.90;;;;;;5041901;28;20025;-64
2024/02/22 09:39:55;;;;;;;1.40;0.73;;;11.60;99.90;;;;;;5041926;28;20037;-65
2024/02/22 09:42:26;;;;;;;1.27;0.70;;;11.50;99.90;;;;;;5040887;28;20025;-63
2024/02/22 09:44:53;;;;;;;0.57;0.57;;;11.40;99.90;;;;;;5044684;28;20128;-65
2024/02/22 09:47:19;;;;;;;1.48;0.88;;;11.30;99.90;;;;;;5055600;28;20029;-65
2024/02/22 09:49:45;;;;;;;2.90;0.80;;;11.20;99.90;;;;;;5059371;28;20075;-62
2024/02/22 09:52:14;;;;;;;1.75;0.80;;;11.20;99.90;;;;;;5043671;28;20020;-63
2024/02/22 09:54:43;;;;;;;1.93;0.80;;;11.20;99.90;;;;;;5042877;28;20049;-63
2024/02/22 09:57:09;;;;;;;1.70;0.80;;;11.20;99.90;;;;;;5042051;28;20075;-63
2024/02/22 09:59:35;;;;;;;1.55;0.80;;;11.20;99.90;;;;;;5043871;28;20026;-63
2024/02/22 10:02:05;;;;;;;1.65;0.80;;;11.20;99.90;;;;;;5040829;28;20106;-63
2024/02/22 10:04:31;;;;;;;1.98;0.82;;;11.10;99.90;;;;;;5039151;28;20021;-63
2024/02/22 10:07:01;;;;;;;1.52;0.80;;;11.20;99.90;;;;;;5042773;28;20443;-63
2024/02/22 10:09:27;;;;;;;1.17;0.70;;;11.30;99.90;;;;;;5043413;28;20045;-63
2024/02/22 10:11:53;;;;;;;1.17;0.70;;;11.40;99.90;;;;;;5045647;28;20029;-63
2024/02/22 10:14:18;;;;;;;1.10;0.70;;;11.50;99.90;;;;;;5047733;28;20045;-63
2024/02/22 10:16:45;;;;;;;4.05;0.90;;;11.50;99.90;;;;;;5040451;28;20037;-63
2024/02/22 10:19:14;;;;;;;0.70;0.60;;;11.60;99.90;;;;;;5042999;28;20040;-63
2024/02/22 10:21:40;;;;;;;0.85;0.63;;;11.80;99.90;;;;;;5042066;28;20372;-63
2024/02/22 10:24:06;;;;;;;1.50;0.70;;;11.90;99.90;;;;;;5042831;28;20037;-63
2024/02/22 10:26:32;;;;;;;1.63;0.70;;;11.80;99.90;;;;;;5045446;28;20040;-63
2024/02/22 10:29:06;;;;;;;1.25;0.70;;;11.70;99.90;;;;;;5044081;28;20329;-63
2024/02/22 10:31:33;;;;;;;1.80;0.73;;;11.40;99.90;;;;;;5044345;28;20029;-63
2024/02/22 10:34:02;;;;;;;0.88;0.60;;;11.30;99.90;;;;;;5041683;28;20108;-64
2024/02/22 10:36:28;;;;;;;0.60;0.60;;;11.20;99.90;;;;;;5041419;28;20025;-65
2024/02/22 10:38:54;;;;;;;0.90;0.60;;;11.20;99.90;;;;;;5043246;28;20033;-64
2024/02/22 10:41:22;;;;;;;0.90;0.70;;;11.30;99.90;;;;;;5037706;28;20033;-64
2024/02/22 10:43:52;;;;;;;0.70;0.70;;;11.30;99.90;;;;;;5045453;28;20021;-64
2024/02/22 10:46:18;;;;;;;1.55;0.60;;;11.40;99.90;;;;;;5044114;28;20044;-64
2024/02/22 10:48:54;;;;;;;0.60;0.60;;;11.60;99.90;;;;;;5045812;28;20047;-63
2024/02/22 10:51:22;;;;;;;1.25;0.70;;;11.70;99.90;;;;;;5045453;28;20036;-64
2024/02/22 10:53:56;;;;;;;1.15;0.60;;;11.80;99.90;;;;;;5041926;28;20029;-64
2024/02/22 10:56:23;;;;;;;1.95;0.60;;;11.80;99.90;;;;;;5040337;28;20084;-64
2024/02/22 10:58:58;;;;;;;1.27;0.70;;;11.80;99.90;;;;;;5037408;28;20017;-63
2024/02/22 11:01:26;;;;;;;2.30;0.80;;;11.90;99.90;;;;;;5043571;28;20463;-64
2024/02/22 11:03:52;;;;;;;1.35;0.70;;;12.00;99.90;;;;;;5038443;28;20024;-64
2024/02/22 11:06:21;;;;;;;0.82;0.60;;;12.10;99.90;;;;;;5035419;28;20068;-64
2024/02/22 11:08:48;;;;;;;1.30;0.68;;;12.20;99.90;;;;;;5046055;28;20108;-64
2024/02/22 11:11:28;;;;;;;2.00;0.60;;;12.20;99.90;;;;;;5042203;28;20060;-64
2024/02/22 11:14:01;;;;;;;1.67;0.80;;;12.20;99.90;;;;;;5041523;28;20126;-65
2024/02/22 11:16:38;;;;;;;1.13;0.70;;;12.30;99.90;;;;;;5039470;28;20033;-64
2024/02/22 11:19:06;;;;;;;1.27;0.70;;;12.40;99.90;;;;;;5040842;28;20017;-64
2024/02/22 11:21:31;;;;;;;0.65;0.60;;;12.50;99.90;;;;;;5038911;28;20028;-65
2024/02/22 11:24:06;;;;;;;0.88;0.68;;;12.50;99.90;;;;;;5041157;28;20026;-66
2024/02/22 11:26:32;;;;;;;2.08;0.70;;;12.50;99.90;;;;;;5047470;28;20119;-65
2024/02/22 11:28:57;;;;;;;2.25;0.80;;;12.50;99.90;;;;;;5044099;28;20104;-65
2024/02/22 11:31:23;;;;;;;3.55;0.90;;;12.60;99.90;;;;;;5040623;28;20114;-65
2024/02/22 11:33:52;;;;;;;1.88;0.82;;;12.60;99.90;;;;;;5044662;28;20487;-66
2024/02/22 11:36:18;;;;;;;2.13;0.75;;;12.70;99.90;;;;;;5047418;28;20575;-65
2024/02/22 11:38:47;;;;;;;1.50;0.70;;;12.80;99.90;;;;;;5045546;28;20013;-66
2024/02/22 11:41:15;;;;;;;0.90;0.60;;;12.70;99.90;;;;;;5044763;28;20028;-66
2024/02/22 11:43:43;;;;;;;0.70;0.65;;;12.70;99.90;;;;;;5035235;28;20040;-66
2024/02/22 11:46:11;;;;;;;1.67;0.70;;;12.80;99.90;;;;;;5042486;28;20025;-65
2024/02/22 11:48:37;;;;;;;2.13;0.85;;;12.90;99.90;;;;;;5039917;28;20063;-65
2024/02/22 11:51:04;;;;;;;0.60;0.60;;;13.00;99.90;;;;;;5039594;28;20025;-65
2024/02/22 11:53:30;;;;;;;0.77;0.60;;;13.10;99.90;;;;;;5039134;28;20036;-65
2024/02/22 11:55:55;;;;;;;1.48;0.70;;;12.90;99.90;;;;;;5040938;28;20045;-65
2024/02/22 11:58:21;;;;;;;1.08;0.80;;;12.90;99.90;;;;;;5036376;28;20132;-65
2024/02/22 12:00:46;;;;;;;0.75;0.63;;;12.90;99.90;;;;;;5042947;28;20127;-65
2024/02/22 12:03:14;;;;;;;1.55;0.60;;;12.90;99.90;;;;;;5037887;28;20029;-65
2024/02/22 12:05:41;;;;;;;1.20;0.70;;;13.00;99.90;;;;;;5040867;28;20064;-65
2024/02/22 12:08:08;;;;;;;1.55;0.68;;;13.10;99.90;;;;;;5038274;28;20521;-65
2024/02/22 12:10:36;;;;;;;2.00;0.80;;;13.30;99.90;;;;;;5044035;28;20025;-65
2024/02/22 12:13:02;;;;;;;1.23;0.70;;;13.40;99.90;;;;;;5042270;28;20559;-65
2024/02/22 12:15:28;;;;;;;1.40;0.70;;;13.40;99.90;;;;;;5040917;28;20088;-65
2024/02/22 12:17:54;;;;;;;2.88;0.75;;;13.40;99.90;;;;;;5038095;28;20033;-64
2024/02/22 12:20:23;;;;;;;1.48;0.70;;;13.50;99.90;;;;;;5042393;28;20048;-65
2024/02/22 12:22:51;;;;;;;1.23;0.70;;;13.70;99.90;;;;;;5031725;28;20124;-65
2024/02/22 12:25:17;;;;;;;1.20;0.70;;;14.00;99.90;;;;;;5037409;28;20617;-65
2024/02/22 12:27:43;;;;;;;2.03;0.73;;;14.10;99.90;;;;;;5034069;28;20061;-65
2024/02/22 12:30:09;;;;;;;1.77;0.70;;;14.20;99.90;;;;;;5042982;28;20468;-64
2024/02/22 12:32:46;;;;;;;1.50;0.80;;;14.20;99.90;;;;;;5039953;28;20097;-65
2024/02/22 12:35:11;;;;;;;1.95;0.70;;;14.30;99.90;;;;;;5060476;28;20037;-65
2024/02/22 12:37:37;;;;;;;2.35;0.60;;;14.30;99.90;;;;;;5037680;28;20029;-65
2024/02/22 12:40:04;;;;;;;0.90;0.50;;;14.40;99.90;;;;;;5040545;28;20092;-65
2024/02/22 12:42:30;;;;;;;0.52;0.50;;;14.70;99.90;;;;;;5038057;28;20029;-65
2024/02/22 12:44:56;;;;;;;0.60;0.60;;;14.60;99.90;;;;;;5049502;28;20036;-64
2024/02/22 12:47:21;;;;;;;0.95;0.57;;;14.40;99.90;;;;;;5042289;28;20419;-65
2024/02/22 12:49:47;;;;;;;0.70;0.60;;;14.30;99.90;;;;;;5039894;28;20030;-65